createdAt,value
2018-09-03T00:00:23.433Z,21.67
2018-09-03T00:02:51.646Z,24.93
2018-09-03T00:05:19.883Z,24.10
2018-09-03T00:07:48.826Z,20.43
2018-09-03T00:10:17.102Z,22.43
2018-09-03T00:12:45.290Z,26.03
2018-09-03T00:15:13.690Z,23.47
2018-09-03T00:17:42.201Z,24.40
2018-09-03T00:20:10.422Z,24.57
2018-09-03T00:22:38.606Z,23.67
2018-09-03T00:25:07.713Z,25.97
2018-09-03T00:27:36.221Z,23.60
2018-09-03T00:30:04.419Z,25.50
2018-09-03T00:32:38.185Z,28.83
2018-09-03T00:35:12.329Z,22.87
2018-09-03T00:37:46.097Z,23.10
2018-09-03T00:40:19.526Z,22.03
2018-09-03T00:42:53.049Z,24.03
2018-09-03T00:45:26.653Z,21.47
2018-09-03T00:47:54.931Z,23.90
2018-09-03T00:50:23.199Z,22.43
2018-09-03T00:52:51.381Z,25.70
2018-09-03T00:55:19.658Z,21.57
2018-09-03T00:57:47.941Z,24.43
2018-09-03T01:00:16.123Z,23.00
2018-09-03T01:02:44.305Z,23.50
2018-09-03T01:05:12.551Z,26.67
2018-09-03T01:07:40.733Z,32.20
2018-09-03T01:10:08.927Z,28.80
2018-09-03T01:12:37.236Z,37.03
2018-09-03T01:15:05.362Z,28.93
2018-09-03T01:17:33.537Z,33.30
2018-09-03T01:20:02.290Z,35.20
2018-09-03T01:22:30.486Z,28.00
2018-09-03T01:24:58.775Z,27.23
2018-09-03T01:27:26.966Z,31.20
2018-09-03T01:29:55.408Z,28.40
2018-09-03T01:32:23.588Z,25.10
2018-09-03T01:34:51.865Z,28.17
2018-09-03T01:37:20.066Z,25.77
2018-09-03T01:39:48.335Z,22.80
2018-09-03T01:42:16.617Z,21.07
2018-09-03T01:44:44.802Z,20.87
2018-09-03T01:47:13.041Z,23.10
2018-09-03T01:49:41.233Z,28.53
2018-09-03T01:52:09.413Z,24.97
2018-09-03T01:54:37.685Z,24.10
2018-09-03T01:57:06.045Z,25.43
2018-09-03T01:59:34.645Z,25.20
2018-09-03T02:02:03.107Z,24.00
2018-09-03T02:04:31.295Z,26.37
2018-09-03T02:06:59.573Z,22.03
2018-09-03T02:09:27.866Z,23.70
2018-09-03T02:11:56.121Z,23.37
2018-09-03T02:14:24.714Z,21.73
2018-09-03T02:16:52.888Z,20.97
2018-09-03T02:19:21.160Z,22.63
2018-09-03T02:21:49.622Z,22.73
2018-09-03T02:24:18.082Z,23.40
2018-09-03T02:26:46.282Z,24.20
2018-09-03T02:29:14.470Z,21.93
2018-09-03T02:31:42.731Z,22.60
2018-09-03T02:34:11.336Z,23.43
2018-09-03T02:36:39.625Z,23.77
2018-09-03T02:39:08.499Z,27.80
2018-09-03T02:41:36.725Z,27.73
2018-09-03T02:44:04.954Z,26.37
2018-09-03T02:46:33.433Z,25.27
2018-09-03T02:49:01.661Z,31.40
2018-09-03T02:51:29.833Z,25.07
2018-09-03T02:53:58.057Z,26.13
2018-09-03T02:56:26.355Z,31.70
2018-09-03T02:58:54.525Z,26.20
2018-09-03T03:01:22.773Z,28.97
2018-09-03T03:03:50.973Z,28.90
2018-09-03T03:06:19.176Z,26.93
2018-09-03T03:08:47.344Z,27.80
2018-09-03T03:11:15.687Z,26.70
2018-09-03T03:13:43.954Z,35.57
2018-09-03T03:16:12.234Z,33.63
2018-09-03T03:18:40.606Z,29.60
2018-09-03T03:21:08.882Z,33.10
2018-09-03T03:23:37.040Z,37.23
2018-09-03T03:26:05.298Z,30.23
2018-09-03T03:28:33.464Z,32.27
2018-09-03T03:31:01.650Z,42.30
2018-09-03T03:33:29.848Z,34.10
2018-09-03T03:35:58.241Z,38.40
2018-09-03T03:38:26.421Z,34.40
2018-09-03T03:40:54.636Z,33.30
2018-09-03T03:43:23.660Z,35.03
2018-09-03T03:45:51.881Z,36.53
2018-09-03T03:48:20.121Z,33.13
2018-09-03T03:50:48.389Z,35.67
2018-09-03T03:53:16.569Z,35.37
2018-09-03T03:55:44.753Z,44.13
2018-09-03T03:58:12.930Z,32.77
2018-09-03T04:00:41.142Z,37.13
2018-09-03T04:03:09.391Z,35.47
2018-09-03T04:05:37.597Z,37.03
2018-09-03T04:08:05.777Z,35.13
2018-09-03T04:10:33.992Z,38.33
2018-09-03T04:13:05.901Z,34.60
2018-09-03T04:15:34.802Z,35.23
2018-09-03T04:18:03.591Z,31.60
2018-09-03T04:20:31.776Z,31.67
2018-09-03T04:22:59.971Z,29.97
2018-09-03T04:25:28.360Z,34.53
2018-09-03T04:27:56.906Z,31.30
2018-09-03T04:30:25.166Z,29.10
2018-09-03T04:32:53.898Z,31.83
2018-09-03T04:35:23.850Z,31.87
2018-09-03T04:37:52.528Z,35.73
2018-09-03T04:40:20.798Z,30.83
2018-09-03T04:42:48.973Z,39.43
2018-09-03T04:45:17.242Z,35.57
2018-09-03T04:47:45.426Z,34.13
2018-09-03T04:50:13.666Z,52.27
2018-09-03T04:52:41.865Z,45.90
2018-09-03T04:55:10.113Z,42.10
2018-09-03T04:57:38.236Z,40.63
2018-09-03T05:00:07.301Z,41.73
2018-09-03T05:02:35.498Z,38.43
2018-09-03T05:05:03.798Z,37.23
2018-09-03T05:07:32.046Z,34.70
2018-09-03T05:10:00.276Z,34.80
2018-09-03T05:12:28.708Z,34.73
2018-09-03T05:14:56.969Z,33.80
2018-09-03T05:17:25.162Z,37.33
2018-09-03T05:19:53.981Z,38.50
2018-09-03T05:22:22.183Z,35.63
2018-09-03T05:24:50.705Z,34.33
2018-09-03T05:27:18.992Z,34.90
2018-09-03T05:29:47.217Z,40.00
2018-09-03T05:32:15.414Z,36.00
2018-09-03T05:34:43.584Z,41.33
2018-09-03T05:37:11.765Z,38.60
2018-09-03T05:39:39.982Z,40.90
2018-09-03T05:42:08.533Z,43.47
2018-09-03T05:44:36.703Z,34.20
2018-09-03T05:47:05.923Z,34.93
2018-09-03T05:49:34.316Z,33.60
2018-09-03T05:52:02.515Z,40.73
2018-09-03T05:54:30.707Z,32.90
2018-09-03T05:56:58.902Z,32.93
2018-09-03T05:59:27.086Z,33.20
2018-09-03T06:01:55.370Z,33.90
2018-09-03T06:04:23.638Z,36.93
2018-09-03T06:06:51.833Z,38.23
2018-09-03T06:09:20.265Z,44.67
2018-09-03T06:11:48.465Z,44.20
2018-09-03T06:14:16.713Z,37.77
2018-09-03T06:16:45.217Z,36.60
2018-09-03T06:19:13.413Z,36.53
2018-09-03T06:21:41.664Z,37.00
2018-09-03T06:24:09.860Z,37.40
2018-09-03T06:26:38.202Z,33.77
2018-09-03T06:29:06.337Z,33.77
2018-09-03T06:31:34.573Z,39.93
2018-09-03T06:34:02.886Z,39.90
2018-09-03T06:36:31.137Z,37.40
2018-09-03T06:38:59.400Z,38.47
2018-09-03T06:41:27.664Z,39.07
2018-09-03T06:43:55.951Z,36.83
2018-09-03T06:46:24.200Z,38.70
2018-09-03T06:48:52.382Z,35.70
2018-09-03T06:51:20.676Z,37.37
2018-09-03T06:53:48.870Z,42.40
2018-09-03T06:56:17.114Z,37.57
2018-09-03T06:58:45.414Z,40.50
2018-09-03T07:01:13.938Z,40.30
2018-09-03T07:03:42.885Z,39.77
2018-09-03T07:06:11.414Z,36.13
2018-09-03T07:08:39.994Z,36.77
2018-09-03T07:11:08.461Z,36.27
2018-09-03T07:13:36.679Z,35.60
2018-09-03T07:16:04.906Z,34.80
2018-09-03T07:18:33.117Z,31.23
2018-09-03T07:21:01.437Z,34.03
2018-09-03T07:23:29.896Z,35.70
2018-09-03T07:25:58.089Z,41.70
2018-09-03T07:28:26.282Z,28.67
2018-09-03T07:30:54.469Z,27.40
2018-09-03T07:33:22.668Z,30.37
2018-09-03T07:35:50.864Z,29.83
2018-09-03T07:38:19.055Z,30.30
2018-09-03T07:40:47.326Z,24.97
2018-09-03T07:43:15.524Z,23.63
2018-09-03T07:45:43.716Z,25.70
2018-09-03T07:48:11.900Z,22.07
2018-09-03T07:50:40.480Z,25.80
2018-09-03T07:53:08.714Z,22.77
2018-09-03T07:55:37.197Z,21.47
2018-09-03T07:58:05.774Z,23.20
2018-09-03T08:00:34.046Z,20.90
2018-09-03T08:03:02.237Z,25.13
2018-09-03T08:05:30.493Z,63.77
2018-09-03T08:07:59.092Z,21.30
2018-09-03T08:10:27.410Z,20.27
2018-09-03T08:12:55.711Z,20.20
2018-09-03T08:15:23.903Z,20.53
2018-09-03T08:17:52.198Z,21.80
2018-09-03T08:20:20.778Z,19.83
2018-09-03T08:22:48.970Z,20.30
2018-09-03T08:25:17.166Z,19.30
2018-09-03T08:27:45.369Z,20.90
2018-09-03T08:30:13.617Z,17.47
2018-09-03T08:32:41.846Z,19.63
2018-09-03T08:35:11.679Z,17.63
2018-09-03T08:37:40.201Z,16.87
2018-09-03T08:40:08.545Z,16.87
2018-09-03T08:42:36.733Z,15.57
2018-09-03T08:45:04.985Z,16.90
2018-09-03T08:47:33.174Z,16.60
2018-09-03T08:50:01.416Z,15.33
2018-09-03T08:52:29.625Z,17.03
2018-09-03T08:54:58.139Z,16.63
2018-09-03T08:57:26.355Z,16.03
2018-09-03T08:59:54.613Z,16.53
2018-09-03T09:02:23.089Z,15.37
2018-09-03T09:04:51.378Z,16.90
2018-09-03T09:07:19.565Z,15.73
2018-09-03T09:09:47.772Z,15.40
2018-09-03T09:12:15.960Z,14.90
2018-09-03T09:14:44.140Z,14.70
2018-09-03T09:17:12.319Z,15.90
2018-09-03T09:19:40.538Z,15.43
2018-09-03T09:22:08.798Z,14.87
2018-09-03T09:24:37.255Z,16.87
2018-09-03T09:27:05.715Z,15.30
2018-09-03T09:29:34.253Z,16.00
2018-09-03T09:32:02.487Z,15.50
2018-09-03T09:34:30.700Z,15.67
2018-09-03T09:36:58.910Z,15.17
2018-09-03T09:39:27.110Z,13.50
2018-09-03T09:41:55.534Z,14.80
2018-09-03T09:44:23.799Z,14.10
2018-09-03T09:46:52.068Z,14.47
2018-09-03T09:49:20.306Z,13.33
2018-09-03T09:51:48.580Z,13.63
2018-09-03T09:54:17.425Z,14.80
2018-09-03T09:56:45.684Z,13.43
2018-09-03T09:59:13.886Z,12.83
2018-09-03T10:01:42.116Z,13.53
2018-09-03T10:04:10.681Z,12.93
2018-09-03T10:06:38.900Z,13.30
2018-09-03T10:09:07.954Z,14.00
2018-09-03T10:11:36.261Z,13.47
2018-09-03T10:14:04.451Z,13.40
2018-09-03T10:16:32.726Z,12.37
2018-09-03T10:19:01.001Z,12.93
2018-09-03T10:21:29.264Z,12.63
2018-09-03T10:23:57.562Z,13.37
2018-09-03T10:26:25.820Z,11.90
2018-09-03T10:28:54.006Z,12.87
2018-09-03T10:31:22.264Z,12.93
2018-09-03T10:33:50.806Z,13.13
2018-09-03T10:36:19.122Z,11.73
2018-09-03T10:38:47.933Z,15.73
2018-09-03T10:41:16.201Z,15.93
2018-09-03T10:43:44.674Z,10.77
2018-09-03T10:46:12.868Z,10.53
2018-09-03T10:48:41.065Z,11.07
2018-09-03T10:51:09.252Z,9.47
2018-09-03T10:53:37.441Z,12.47
2018-09-03T10:56:06.125Z,11.97
2018-09-03T10:58:34.357Z,10.87
2018-09-03T11:01:02.551Z,11.67
2018-09-03T11:03:30.721Z,10.13
2018-09-03T11:05:58.965Z,15.27
2018-09-03T11:08:27.160Z,11.57
2018-09-03T11:10:55.424Z,10.40
2018-09-03T11:13:30.336Z,8.87
2018-09-03T11:15:58.516Z,9.77
2018-09-03T11:18:28.286Z,9.87
2018-09-03T11:20:56.528Z,9.37
2018-09-03T11:23:24.764Z,9.00
2018-09-03T11:25:53.082Z,8.70
2018-09-03T11:28:21.269Z,9.77
2018-09-03T11:30:49.454Z,9.63
2018-09-03T11:33:17.862Z,9.13
2018-09-03T11:35:46.070Z,7.67
2018-09-03T11:38:14.592Z,9.13
2018-09-03T11:40:42.868Z,8.93
2018-09-03T11:43:11.080Z,7.03
2018-09-03T11:45:39.382Z,7.20
2018-09-03T11:48:07.644Z,8.10
2018-09-03T11:50:35.920Z,8.30
2018-09-03T11:53:04.109Z,7.90
2018-09-03T11:55:32.320Z,7.17
2018-09-03T11:58:00.512Z,7.70
2018-09-03T12:00:30.132Z,7.60
2018-09-03T12:02:58.885Z,7.40
2018-09-03T12:05:27.586Z,7.53
2018-09-03T12:07:55.805Z,8.53
2018-09-03T12:10:24.235Z,8.73
2018-09-03T12:12:52.453Z,9.60
2018-09-03T12:15:38.504Z,16.40
2018-09-03T12:18:06.749Z,12.37
2018-09-03T12:20:34.921Z,8.27
2018-09-03T12:23:03.391Z,9.43
2018-09-03T12:25:31.652Z,10.23
2018-09-03T12:27:59.935Z,10.40
2018-09-03T12:30:28.198Z,10.27
2018-09-03T12:32:56.377Z,10.30
2018-09-03T12:35:26.059Z,10.27
2018-09-03T12:37:54.286Z,10.63
2018-09-03T12:40:22.536Z,9.53
2018-09-03T12:42:50.853Z,9.80
2018-09-03T12:45:23.264Z,10.03
2018-09-03T12:47:51.414Z,8.77
2018-09-03T12:50:19.682Z,8.70
2018-09-03T12:52:47.883Z,8.83
2018-09-03T12:55:16.092Z,9.00
2018-09-03T12:57:44.270Z,8.87
2018-09-03T13:00:16.700Z,9.20
2018-09-03T13:02:45.037Z,10.13
2018-09-03T13:05:13.181Z,9.57
2018-09-03T13:07:41.608Z,9.67
2018-09-03T13:10:09.841Z,10.80
2018-09-03T13:12:38.079Z,9.97
2018-09-03T13:15:07.009Z,9.33
2018-09-03T13:17:35.189Z,7.03
2018-09-03T13:20:03.541Z,8.50
2018-09-03T13:22:31.747Z,7.10
2018-09-03T13:24:59.911Z,6.97
2018-09-03T13:27:28.072Z,6.50
2018-09-03T13:29:56.260Z,6.07
2018-09-03T13:32:24.436Z,5.73
2018-09-03T13:34:53.418Z,6.23
2018-09-03T13:37:21.586Z,6.30
2018-09-03T13:39:49.770Z,6.03
2018-09-03T13:42:18.093Z,5.57
2018-09-03T13:44:46.390Z,5.90
2018-09-03T13:47:14.560Z,10.13
2018-09-03T13:49:42.780Z,11.27
2018-09-03T13:52:11.062Z,7.73
2018-09-03T13:54:39.261Z,6.70
2018-09-03T13:57:07.858Z,7.03
2018-09-03T13:59:36.067Z,7.30
2018-09-03T14:02:04.365Z,6.43
2018-09-03T14:04:32.653Z,6.53
2018-09-03T14:07:00.905Z,6.80
2018-09-03T14:09:29.112Z,7.20
2018-09-03T14:11:57.367Z,6.20
2018-09-03T14:14:25.658Z,6.53
2018-09-03T14:16:53.837Z,5.63
2018-09-03T14:19:22.257Z,6.63
2018-09-03T14:21:50.465Z,6.73
2018-09-03T14:24:18.633Z,7.63
2018-09-03T14:26:46.837Z,7.77
2018-09-03T14:29:15.619Z,7.40
2018-09-03T14:31:43.879Z,7.40
2018-09-03T14:34:12.114Z,7.20
2018-09-03T14:36:40.552Z,7.33
2018-09-03T14:39:10.487Z,7.53
2018-09-03T14:41:38.890Z,6.83
2018-09-03T14:44:07.492Z,7.33
2018-09-03T14:46:35.792Z,7.03
2018-09-03T14:49:04.094Z,6.37
2018-09-03T14:51:32.510Z,6.37
2018-09-03T14:54:00.758Z,5.73
2018-09-03T14:56:28.935Z,6.43
2018-09-03T14:58:57.158Z,7.80
2018-09-03T15:01:26.206Z,8.13
2018-09-03T15:03:54.739Z,6.90
2018-09-03T15:06:22.925Z,14.30
2018-09-03T15:08:51.238Z,12.00
2018-09-03T15:11:19.456Z,7.80
2018-09-03T15:13:51.941Z,10.97
2018-09-03T15:16:20.165Z,8.73
2018-09-03T15:18:48.349Z,8.20
2018-09-03T15:21:16.533Z,7.90
2018-09-03T15:23:44.729Z,7.20
2018-09-03T15:26:13.050Z,7.70
2018-09-03T15:28:41.304Z,8.40
2018-09-03T15:31:09.601Z,8.40
2018-09-03T15:33:38.823Z,8.03
2018-09-03T15:36:07.138Z,8.17
2018-09-03T15:38:35.325Z,8.03
2018-09-03T15:41:03.600Z,7.10
2018-09-03T15:43:31.827Z,7.00
2018-09-03T15:46:00.120Z,6.67
2018-09-03T15:48:28.348Z,5.70
2018-09-03T15:50:56.578Z,17.70
2018-09-03T15:53:25.473Z,9.53
2018-09-03T15:55:53.758Z,7.00
2018-09-03T15:58:22.075Z,6.13
2018-09-03T16:00:50.260Z,6.70
2018-09-03T16:03:18.438Z,7.30
2018-09-03T16:05:46.698Z,6.20
2018-09-03T16:08:14.954Z,7.10
2018-09-03T16:10:43.156Z,6.60
2018-09-03T16:13:11.404Z,6.20
2018-09-03T16:15:39.691Z,6.33
2018-09-03T16:18:08.150Z,6.07
2018-09-03T16:20:36.623Z,5.80
2018-09-03T16:23:04.926Z,5.77
2018-09-03T16:25:33.130Z,5.30
2018-09-03T16:28:01.308Z,5.37
2018-09-03T16:30:29.504Z,5.17
2018-09-03T16:32:58.038Z,5.07
2018-09-03T16:35:27.782Z,5.33
2018-09-03T16:37:56.010Z,4.70
2018-09-03T16:40:24.295Z,5.00
2018-09-03T16:42:52.781Z,5.40
2018-09-03T16:45:21.077Z,5.87
2018-09-03T16:47:49.297Z,5.00
2018-09-03T16:50:17.653Z,4.77
2018-09-03T16:52:45.856Z,4.30
2018-09-03T16:55:14.107Z,5.13
2018-09-03T16:57:42.237Z,4.47
2018-09-03T17:00:10.507Z,4.83
2018-09-03T17:02:38.684Z,6.93
2018-09-03T17:05:07.054Z,5.13
2018-09-03T17:07:35.415Z,6.27
2018-09-03T17:10:04.035Z,10.97
2018-09-03T17:12:32.554Z,9.77
2018-09-03T17:15:00.721Z,9.40
2018-09-03T17:17:28.953Z,7.60
2018-09-03T17:19:57.220Z,6.43
2018-09-03T17:22:25.429Z,5.00
2018-09-03T17:24:53.684Z,5.60
2018-09-03T17:27:21.874Z,5.10
2018-09-03T17:29:50.138Z,5.67
2018-09-03T17:32:18.417Z,4.50
2018-09-03T17:34:46.813Z,5.23
2018-09-03T17:37:15.143Z,5.10
2018-09-03T17:39:43.321Z,4.83
2018-09-03T17:42:11.513Z,4.60
2018-09-03T17:44:39.777Z,5.10
2018-09-03T17:47:07.964Z,9.10
2018-09-03T17:49:36.439Z,15.90
2018-09-03T17:52:04.689Z,8.00
2018-09-03T17:54:33.172Z,7.40
2018-09-03T17:57:01.364Z,6.63
2018-09-03T17:59:29.847Z,6.63
2018-09-03T18:01:58.435Z,5.50
2018-09-03T18:04:26.714Z,5.90
2018-09-03T18:06:54.890Z,6.07
2018-09-03T18:09:23.060Z,5.07
2018-09-03T18:11:51.324Z,5.87
2018-09-03T18:14:19.805Z,5.67
2018-09-03T18:16:48.411Z,5.47
2018-09-03T18:19:16.694Z,12.33
2018-09-03T18:21:44.955Z,20.03
2018-09-03T18:24:13.116Z,7.43
2018-09-03T18:26:41.406Z,9.90
2018-09-03T18:29:09.713Z,7.80
2018-09-03T18:31:37.989Z,6.20
2018-09-03T18:34:06.193Z,5.30
2018-09-03T18:36:34.405Z,6.00
2018-09-03T18:39:02.696Z,6.00
2018-09-03T18:41:31.011Z,6.50
2018-09-03T18:43:59.233Z,7.00
2018-09-03T18:46:27.823Z,6.40
2018-09-03T18:48:56.013Z,5.90
2018-09-03T18:51:24.425Z,7.60
2018-09-03T18:53:52.736Z,6.77
2018-09-03T18:56:20.938Z,7.10
2018-09-03T18:58:49.508Z,6.90
2018-09-03T19:01:17.719Z,6.70
2018-09-03T19:03:45.900Z,6.80
2018-09-03T19:06:14.213Z,8.30
2018-09-03T19:08:42.504Z,6.77
2018-09-03T19:11:10.823Z,15.53
2018-09-03T19:13:39.016Z,19.00
2018-09-03T19:16:07.331Z,10.77
2018-09-03T19:18:35.750Z,39.30
2018-09-03T19:21:03.955Z,50.07
2018-09-03T19:23:32.168Z,23.20
2018-09-03T19:26:01.042Z,12.00
2018-09-03T19:28:29.314Z,9.93
2018-09-03T19:30:57.758Z,8.20
2018-09-03T19:33:25.949Z,9.73
2018-09-03T19:35:54.322Z,12.07
2018-09-03T19:38:22.523Z,10.17
2018-09-03T19:40:50.950Z,8.60
2018-09-03T19:43:19.195Z,8.60
2018-09-03T19:45:47.373Z,7.63
2018-09-03T19:48:15.648Z,16.67
2018-09-03T19:50:44.234Z,16.33
2018-09-03T19:53:12.492Z,13.03
2018-09-03T19:55:41.064Z,8.40
2018-09-03T19:58:09.259Z,9.10
2018-09-03T20:00:37.438Z,10.60
2018-09-03T20:03:05.710Z,8.60
2018-09-03T20:05:33.906Z,9.63
2018-09-03T20:08:02.099Z,8.87
2018-09-03T20:10:30.368Z,82.30
2018-09-03T20:12:58.612Z,66.63
2018-09-03T20:15:27.656Z,10.70
2018-09-03T20:17:56.340Z,8.23
2018-09-03T20:20:24.961Z,9.23
2018-09-03T20:22:53.534Z,9.17
2018-09-03T20:25:21.770Z,8.97
2018-09-03T20:27:50.002Z,17.43
2018-09-03T20:30:18.182Z,13.93
2018-09-03T20:32:46.494Z,14.50
2018-09-03T20:35:14.767Z,9.57
2018-09-03T20:37:42.941Z,10.70
2018-09-03T20:40:11.456Z,9.73
2018-09-03T20:42:39.644Z,10.57
2018-09-03T20:45:08.145Z,9.97
2018-09-03T20:47:36.413Z,10.27
2018-09-03T20:50:04.789Z,10.60
2018-09-03T20:52:33.333Z,11.10
2018-09-03T20:55:01.548Z,10.73
2018-09-03T20:57:29.744Z,13.27
2018-09-03T20:59:57.966Z,10.30
2018-09-03T21:02:26.290Z,19.10
2018-09-03T21:04:54.606Z,16.20
2018-09-03T21:07:22.876Z,11.60
2018-09-03T21:09:51.090Z,11.77
2018-09-03T21:12:19.286Z,19.30
2018-09-03T21:14:47.483Z,10.57
2018-09-03T21:17:15.742Z,12.60
2018-09-03T21:19:43.997Z,10.00
2018-09-03T21:22:12.222Z,9.10
2018-09-03T21:24:40.758Z,10.50
2018-09-03T21:27:09.056Z,10.20
2018-09-03T21:29:37.234Z,10.83
2018-09-03T21:32:05.781Z,8.93
2018-09-03T21:34:33.979Z,10.23
2018-09-03T21:37:02.542Z,9.28
2018-09-03T21:39:30.737Z,9.07
2018-09-03T21:41:59.102Z,9.77
2018-09-03T21:44:27.232Z,10.23
2018-09-03T21:46:55.509Z,9.23
2018-09-03T21:49:23.824Z,9.43
2018-09-03T21:51:52.266Z,10.60
2018-09-03T21:54:20.486Z,10.63
2018-09-03T21:56:48.750Z,10.33
2018-09-03T21:59:16.929Z,10.40
2018-09-03T22:01:45.226Z,9.83
2018-09-03T22:04:13.502Z,9.90
2018-09-03T22:06:41.677Z,10.70
2018-09-03T22:09:10.152Z,9.60
2018-09-03T22:11:38.557Z,8.83
2018-09-03T22:14:06.740Z,8.90
2018-09-03T22:16:34.976Z,8.90
2018-09-03T22:19:03.289Z,8.83
2018-09-03T22:21:31.637Z,8.73
2018-09-03T22:23:59.900Z,9.83
2018-09-03T22:26:28.177Z,7.87
2018-09-03T22:28:56.345Z,8.20
2018-09-03T22:31:24.520Z,7.70
2018-09-03T22:33:53.006Z,8.40
2018-09-03T22:37:24.542Z,7.87
2018-09-03T22:39:52.736Z,8.00
2018-09-03T22:42:24.680Z,11.07
2018-09-03T22:44:53.056Z,7.23
2018-09-03T22:47:21.252Z,7.50
2018-09-03T22:49:49.535Z,8.30
2018-09-03T22:52:17.714Z,7.13
2018-09-03T22:54:45.966Z,6.60
2018-09-03T22:57:14.156Z,7.83
2018-09-03T22:59:42.470Z,6.83
2018-09-03T23:02:10.651Z,7.57
2018-09-03T23:04:38.836Z,6.90
2018-09-03T23:07:07.053Z,7.20
2018-09-03T23:09:35.549Z,7.13
2018-09-03T23:12:04.013Z,6.40
2018-09-03T23:14:32.218Z,5.70
2018-09-03T23:17:03.550Z,6.80
2018-09-03T23:19:31.927Z,7.63
2018-09-03T23:22:00.177Z,5.27
2018-09-03T23:24:28.478Z,5.37
2018-09-03T23:26:56.753Z,5.43
2018-09-03T23:29:25.041Z,5.30
2018-09-03T23:31:53.280Z,8.53
2018-09-03T23:34:21.465Z,5.50
2018-09-03T23:36:49.640Z,5.87
2018-09-03T23:39:17.810Z,5.77
2018-09-03T23:41:46.096Z,6.60
2018-09-03T23:44:14.358Z,5.50
2018-09-03T23:46:42.637Z,5.43
2018-09-03T23:49:10.923Z,6.10
2018-09-03T23:51:39.092Z,6.20
2018-09-03T23:54:07.284Z,5.30
2018-09-03T23:56:35.478Z,5.77
2018-09-03T23:59:03.683Z,6.80
